Terminal Aerodrome Forecast
Issued by NWS

Home | Current Version | Previous Version | Text Only | Print | Product List | Glossary On
Versions: 1 2 3 4 5 6 7 8 9 10 11 12 13 14 15 16 17 18 19 20 21 22 23 24
000
FTUS41 KCAR 191700
TAFHUL
TAF
KHUL 191726Z 1918/2018 VRB06KT P6SM SKC
     FM192200 27004KT P6SM SKC
     FM200300 19004KT P6SM SCT250
     FM201700 20009KT P6SM SCT090=

USA.gov is the U.S. government's official web portal to all federal, state and local government web resources and services.